Tiempo atmosférico en la estación meteorológica de Reus Aeropuerto, Tarragona (71 m.)



Fecha
DESCASC
Temp. máxima en grados centígrados (hora)
DESCASC
Temp. mínima en grados centígrados (hora)
DESCASC
Temp. media en grados centígrados
DESCASC
Racha de viento máxima en m/sg (hora)
DESCASC
Velocidad máxima media en intervalos de 10 minutos(hora)
DESCASC
Precipitaciones diarias en mm
DESCASC
Precipitaciones de 00:00 a 06:00 en mm
DESCASC
Precipitaciones de 06:00 a 12:00 en mm
DESCASC
Precipitaciones de 12:00 a 18:00 en mm
DESCASC
Precipitaciones de 18:00 a 24:00 en mm
DESCASC
21-02-2021 16.3 (15:00) 5.6 (00:40) 10.9 18.89 (12:10) 12.78 (12:10) 0 0 0 0 0
20-02-2021 15.2 (13:50) 6.5 (23:59) 10.8 6.11 (11:40) 3.89 (14:50) 0 0 0 0 0
19-02-2021 14.2 (13:50) 3.9 (05:00) 9 5.83 (14:20) 3.89 (15:20) 0 0 0 0 0
18-02-2021 15.7 (15:20) 7.6 (00:00) 11.6 5.83 (16:20) 3.89 (16:20) 0 0 0 0 0
17-02-2021 16.2 (15:50) 6.3 (00:00) 11.3 5.83 (02:40) 3.89 (02:40) 0 0 0 0 0
16-02-2021 15.3 (13:10) 6.7 (00:00) 11 9.17 (11:00) 6.39 (13:30) 0 0 0 0 0
15-02-2021 11 (16:00) 7.6 (00:00) 9.3 4.17 (00:50) 3.33 (01:50) 0 0 0 0 0
14-02-2021 11.6 (03:30) 7.4 (00:00) 9.5 9.72 (05:30) 6.67 (05:50) 1 0 0 1 0
13-02-2021 19.4 (15:40) 6.3 (00:00) 12.8 12.78 (01:30) 8.06 (04:00) 0 0 0 0 0
12-02-2021 17.6 (12:00) 7.5 (00:00) 12.6 14.44 (16:40) 8.33 (14:50) 0 0 0 0 0
11-02-2021 19.9 (15:00) 5.6 (00:00) 12.7 12.5 (14:10) 8.06 (14:10) 0 0 0 0 0
10-02-2021 16 (15:30) 6.1 (00:00) 11 19.72 (12:30) 12.78 (13:30) 0.6 0 0.6 0 0
09-02-2021 14.2 (12:30) 8.3 (00:00) 11.3 9.17 (00:40) 7.5 (04:30) 1 0 0 0 1
08-02-2021 15.8 (15:40) 7.4 (00:00) 11.6 12.5 (17:10) 8.33 (17:20) 2.5 0 0.6 1.9 0
07-02-2021 -- (--) -- (--) -- -- (--) -- (--) -- 0 -- 0 0
06-02-2021 18.3 (12:20) 9.5 (00:00) 13.9 12.5 (23:00) 8.06 (23:00) 0 0 0 0 0
05-02-2021 16.3 (13:40) 8.9 (00:00) 12.6 9.17 (14:50) 6.11 (14:50) 0 0 0 0 0
04-02-2021 16.1 (12:20) 6.9 (00:00) 11.5 5 (00:10) 4.17 (00:20) 0 0 0 0 0
03-02-2021 22.2 (14:00) 6.5 (00:00) 14.4 5 (13:10) 3.89 (09:10) 0 0 0 0 0
02-02-2021 21.8 (15:00) 8.8 (23:59) 15.3 15 (10:20) 11.39 (09:10) 0 0 0 0 0
01-02-2021 19.9 (15:50) 14.3 (00:00) 17.1 33.61 (15:10) 21.94 (16:30) 0 0 0 0 0
31-01-2021 18.2 (16:10) 10.5 (00:00) 14.4 23.33 (08:00) 16.11 (08:30) 0 0 0 0 0
30-01-2021 19.7 (14:50) 9.3 (00:00) 14.5 21.11 (19:10) 13.89 (12:20) 0 0 0 0 0
29-01-2021 22.2 (15:00) 14.1 (00:00) 18.2 13.89 (07:10) 10.28 (07:10) 0 0 0 0 0
28-01-2021 24.7 (16:30) 8.1 (00:00) 16.4 14.44 (10:30) 9.72 (10:20) 0 0 0 0 0
27-01-2021 21.5 (16:00) 4.6 (00:00) 13 12.78 (16:00) 8.33 (15:50) -- 0 -- -- 0
26-01-2021 15.5 (13:30) 2.5 (00:00) 9 10.28 (13:40) 6.94 (15:30) 0 0 0 0 0
25-01-2021 14 (15:20) 6.5 (00:00) 10.3 8.89 (04:20) 6.94 (04:20) 0 0 0 0 0

Gráficas

Temp. máximas Temp. mínimas Temp. medias Precipitaciones Rachas de viento máximas Velocidades máximas media en intervalos de 10 minutos

Datos horarios

Fecha y hora oficial Temperatura (ºC) Velocidad del viento (km/h) Dirección del viento Racha (km/h) Dirección de racha Precipitación (mm) Presión (hPa) Tendencia (hPa) Humedad (%)
2021-02-23 23:00:00 13.1 8 Este 11 Este 0 1027.6 0.8 92
2021-02-23 22:00:00 12.8 0 Calma 9 Este 0 1027.3 1.2 90
2021-02-23 21:00:00 13.1 3 Norte 13 Norte 0 1027 2 87
2021-02-23 20:00:00 13.3 8 Norte 11 Norte 0 1026.8 2 90
2021-02-23 19:00:00 13.4 8 Este 15 Sudeste 0 1026.1 1.4 86
2021-02-23 18:00:00 14.9 9 Sudeste 15 Sur 0 1025 -- 71
2021-02-23 17:00:00 17.4 8 Sur 13 Sur 0 1024.8 -- 62
2021-02-23 16:00:00 17.9 5 Sur 15 Sur 0 1024.7 -- 62
2021-02-23 15:00:00 17.4 10 Sur 18 Sur 0 1024.8 -- 65
2021-02-23 14:00:00 17.2 13 Sudeste -- -- -- 1024.9 -- 67
2021-02-23 13:00:00 18.2 11 Sur 18 Sudeste 0 1025.2 -- 60
2021-02-23 12:00:00 16 6 Nordeste 15 Nordeste 0 1025.3 -- 69
2021-02-23 11:00:00 15.9 10 Nordeste 18 Nordeste 0 1025.1 -- 73
2021-02-23 10:00:00 13.6 7 Nordeste 11 Nordeste 0 1024.6 -- 82
2021-02-23 09:00:00 11.2 4 Nordeste 11 Norte 0 1023.8 -- 93
2021-02-23 08:00:00 10.1 8 Nordeste 11 Nordeste 0 1022.6 -- 96
2021-02-23 07:00:00 8.8 10 Nordeste 11 Nordeste 0 1021.8 -- 96
2021-02-23 06:00:00 9.2 6 Norte 11 Norte 0 1021.1 -- 97
2021-02-23 05:00:00 8.1 6 Nordeste 9 Nordeste 0 1020.5 -- 99
2021-02-23 04:00:00 6.4 7 Nordeste 11 Nordeste 0 1019.8 -- 98
2021-02-23 03:00:00 6.9 3 Noroeste 8 Noroeste 0 1019.2 -- 98
2021-02-23 02:00:00 7.6 8 Norte 9 Norte 0 1019 -- 98
2021-02-23 01:00:00 8.7 7 Noroeste 9 Norte 0 1018.5 -- 96
2021-02-23 00:00:00 9.8 4 Nordeste 9 Nordeste 0 1017.8 -- 93
2021-02-22 23:00:00 10.3 5 Nordeste 8 Este 0 1017.3 -- 91
2021-02-22 22:00:00 10.7 7 Norte 13 Norte 0 1016.5 -- 90
2021-02-22 21:00:00 11.1 11 Nordeste 18 Norte 0 1015.1 -- 88
2021-02-22 20:00:00 11.7 13 Norte 17 Norte 0 1014.3 -- 88
2021-02-22 19:00:00 12.1 11 Este 15 Nordeste 0 1012.8 -- 83
2021-02-22 18:00:00 13.3 9 Nordeste 13 Este 0 1011.3 -- 85
2021-02-22 17:00:00 14.3 7 Este 13 Sudeste 0 1010.5 -- 79
2021-02-22 16:00:00 13.1 9 Sudeste 17 Sudeste 0.4 1009.7 -- 93
2021-02-22 15:00:00 11.7 8 Nordeste 21 Este 1.9 1008.9 -- 89
2021-02-22 14:00:00 15.8 12 Sudeste 18 Sudeste 0 1008.4 -- 68
2021-02-22 13:00:00 14.1 6 Este 13 Norte 0 1008.3 -- 74
2021-02-22 12:00:00 12.4 8 Norte -- -- -- 1008.1 -- 85
2021-02-22 11:00:00 -- -- -- -- -- -- -- -- --
2021-02-22 10:00:00 -- -- -- -- -- -- -- -- --
2021-02-22 09:00:00 12.3 15 Este 28 Este 2.4 1005.5 -- 97
2021-02-22 08:00:00 12 17 Nordeste 26 Nordeste 1.2 1004.6 -- 97
2021-02-22 07:00:00 12.2 14 Este 18 Este 0.2 1004.2 2.3 95
2021-02-22 06:00:00 13 16 Sudeste 32 Este 0 1003.5 -- 90
2021-02-22 05:00:00 13.6 23 Este 52 Este 0 1002.4 -- 86
2021-02-22 04:00:00 14 28 Este 46 Este 0 1001.9 -- 80
2021-02-22 03:00:00 14.2 24 Este 45 Nordeste 0 1000.5 -- 78
2021-02-22 02:00:00 14.1 24 Nordeste 41 Nordeste 0 1000.9 -- 78
2021-02-22 01:00:00 13.8 24 Nordeste 42 Nordeste 0 1001.6 -- 79
2021-02-22 00:00:00 14.2 13 Este 46 Nordeste 0 1002.1 -- 74
2021-02-21 23:00:00 14.1 27 Nordeste 41 Nordeste 0 1001.3 -- 74
2021-02-21 22:00:00 14 23 Nordeste 46 Este 0 1001.7 0.4 74
2021-02-21 21:00:00 13.9 28 Nordeste 48 Este 0 1001.3 -- 74
2021-02-21 20:00:00 13.9 33 Nordeste 45 Nordeste 0 1001 -- 73
2021-02-21 19:00:00 13.9 30 Nordeste 48 Nordeste 0 1001.3 -- 73
2021-02-21 18:00:00 14.1 35 Nordeste 54 Nordeste 0 1000.5 -- 71
2021-02-21 17:00:00 14.2 31 Este 61 Nordeste 0 1001.6 -- 70
2021-02-21 16:00:00 14.7 32 Este 50 Este 0 1001.2 -- 68
2021-02-21 15:00:00 16.1 32 Este 68 Este 0 1001.7 -- 63
2021-02-21 14:00:00 15.5 36 Este 68 Este 0 1002.8 -- 65
2021-02-21 13:00:00 15.5 41 Este 68 Este 0 1003.6 -- 65
2021-02-21 12:00:00 15 45 Este 65 Este 0 1004.9 -- 67
2021-02-21 11:00:00 14.1 25 Este 48 Nordeste 0 1005 -- 70
2021-02-21 10:00:00 12.9 26 Este 48 Nordeste 0 1005.2 -- 73
2021-02-21 09:00:00 11.6 25 Nordeste 41 Nordeste 0 1005.4 -- 77
2021-02-21 08:00:00 10.7 22 Nordeste 37 Nordeste 0 1005.6 -- 76
2021-02-21 07:00:00 10.8 24 Nordeste 42 Nordeste 0 1006.4 -- 76
2021-02-21 06:00:00 10.5 19 Nordeste 32 Nordeste 0 1006.5 -- 78
2021-02-21 05:00:00 9.8 15 Nordeste 22 Nordeste 0 1007.1 -- 78
2021-02-21 04:00:00 7.6 8 Nordeste 15 Nordeste 0 1007.5 -- 83
2021-02-21 03:00:00 8.8 14 Nordeste 24 Nordeste 0 1008.1 -- 81
2021-02-21 02:00:00 8.4 11 Nordeste 21 Nordeste 0 1008.6 -- 88
2021-02-21 01:00:00 5.7 10 Norte 13 Norte 0 1009.1 -- 96
2021-02-21 00:00:00 6.6 9 Norte 11 Norte 0 1009.6 -- 94
2021-02-20 23:00:00 8.1 10 Norte 15 Norte 0 1010 -- 92
2021-02-20 22:00:00 8.3 11 Norte 17 Nordeste 0 1010.3 -- 91
2021-02-20 21:00:00 8.3 11 Norte 13 Nordeste 0 1010.4 -- 90
2021-02-20 20:00:00 8.4 10 Nordeste -- -- 0 1010.3 -- 86
2021-02-20 19:00:00 9.1 8 Nordeste 13 Este 0 1010 -- 82
2021-02-20 18:00:00 12.3 5 Sudeste 15 Sur 0 1009.7 -- 70
2021-02-20 17:00:00 14 9 Sur 21 Sudeste 0 1010.1 -- 64
2021-02-20 16:00:00 13.6 13 Sudeste 18 Sudeste 0 1010.3 -- 70
2021-02-20 15:00:00 13.6 14 Sudeste 21 Sudeste 0 1010.7 -- 71
2021-02-20 14:00:00 15.1 12 Sur 18 Sudeste 0 1011.4 -- 63
2021-02-20 13:00:00 14.3 6 Sudeste 15 Sur 0 1011.9 -- 66
2021-02-20 12:00:00 13.6 9 Sur 22 Sur 0 1012.5 -- 68
2021-02-20 11:00:00 12.2 3 Nordeste 9 Este 0 1012.3 -- 76
2021-02-20 10:00:00 11.3 3 Nordeste 11 Nordeste 0 1012.2 -- 81
2021-02-20 09:00:00 10.1 4 Norte 11 Norte 0 1011.9 1 85
2021-02-20 08:00:00 9.4 6 Nordeste 11 Este 0 1011.2 -- 86
2021-02-20 07:00:00 9.4 8 Norte 11 Norte 0 1011 -- 85
2021-02-20 06:00:00 9.4 5 Nordeste 11 Norte 0 1010.9 -- 86
2021-02-20 05:00:00 9.3 8 Nordeste 9 Nordeste 0 1010.8 -- 87
2021-02-20 04:00:00 9.2 8 Norte 9 Norte 0 1010.8 -0.7 88
2021-02-20 03:00:00 9.4 4 Nordeste 11 Noroeste 0 1011.3 -- 88
2021-02-20 02:00:00 9.6 7 Noroeste 9 Noroeste 0 1011.6 -- 86
2021-02-20 01:00:00 9.8 6 Oeste 9 Noroeste 0 1011.5 -- 86
2021-02-20 00:00:00 9.5 8 Noroeste 11 Noroeste 0 1011.8 -- 89
2021-02-19 23:00:00 9.4 5 Noroeste 13 Sudoeste 0 1012.1 0.5 90
2021-02-19 22:00:00 9.3 9 Oeste 15 Sudoeste 0 1012 -- 91
2021-02-19 21:00:00 9.4 8 Sudoeste 15 Sudoeste 0 1011.7 -- 92
2021-02-19 20:00:00 9.5 7 Sudoeste 13 Sudoeste 0 1011.6 -- 92
2021-02-19 19:00:00 9.8 5 Sur 13 Sur 0 1011.2 -- 90
2021-02-19 18:00:00 10.5 10 Sur 15 Sur 0 1011 -- 84
2021-02-19 17:00:00 12.5 12 Sur 18 Sur 0 1010.9 -0.9 76
2021-02-19 16:00:00 13.8 12 Sur 21 Sur 0 1010.8 -- 71
2021-02-19 15:00:00 14 12 Sur 21 Sudoeste 0 1011.1 -- 70
2021-02-19 14:00:00 13.9 12 Sudoeste 18 Sur 0 1011.8 -- 70
2021-02-19 13:00:00 12.2 5 Oeste 13 Oeste 0 1012.6 -- 77
2021-02-19 12:00:00 11.2 5 Sudoeste 13 Oeste 0 1013.2 -- 83
2021-02-19 11:00:00 10.6 8 Sudoeste 13 Sudoeste 0 1013.4 -- 88
2021-02-19 10:00:00 9.5 5 Norte 9 Norte 0 1013.1 -- 93
2021-02-19 09:00:00 8.1 6 Nordeste 17 Nordeste 0 1012.8 -- 96
2021-02-19 08:00:00 7.3 5 Nordeste 8 Nordeste 0 1012.3 -- 99
2021-02-19 07:00:00 5.8 3 Norte 9 Norte 0 1011.7 -- 99
2021-02-19 06:00:00 4.4 9 Norte 11 Norte 0 1011.1 -- 98
2021-02-19 05:00:00 4 6 Nordeste 8 Norte 0 1010.4 -- 97
2021-02-19 04:00:00 5.5 6 Norte 9 Norte 0 1010.3 -- 97
2021-02-19 03:00:00 6.2 5 Norte 11 Norte 0 1010.7 -- 98
2021-02-19 02:00:00 -- -- -- -- -- 0 1010.8 -- --
2021-02-19 01:00:00 6.4 9 Norte 11 Norte 0 1011 -- 96
2021-02-19 00:00:00 -- 8 Noroeste 11 Norte 0 1011 -- --
2021-02-18 23:00:00 8.7 5 Noroeste 9 Noroeste 0 1011.1 -- 91
2021-02-18 22:00:00 9.3 6 Oeste 11 Oeste 0 1011 -- 88
2021-02-18 21:00:00 9.7 4 Oeste 8 Oeste 0 1010.7 -- 89
2021-02-18 20:00:00 9.6 5 Sudoeste 13 Sudoeste 0 1010.3 -- 87
2021-02-18 19:00:00 10.2 8 Sur 11 Sudoeste 0 1009.8 -- 83
2021-02-18 18:00:00 11.5 9 Sudoeste 15 Sur 0 1009.6 -- 79
2021-02-18 17:00:00 13.6 11 Sur 21 Sur 0 1009.5 -- 68
2021-02-18 16:00:00 14.7 12 Sur 18 Sur 0 1009.4 -- 67
2021-02-18 15:00:00 15.1 8 Sur 13 Sudoeste 0 1009.3 -- 64
2021-02-18 14:00:00 13.4 7 Oeste 18 Oeste 0 1010 -- 69
2021-02-18 13:00:00 12.7 6 Sudoeste 13 Sudoeste 0 1010.6 -- 74
2021-02-18 12:00:00 12.1 8 Sudoeste 13 Sudoeste 0 1011.3 -- 78
2021-02-18 11:00:00 11.2 8 Noroeste 11 Norte 0 1011.3 -- 85
2021-02-18 10:00:00 9.6 5 Nordeste 9 Este 0 1011.4 -- 90
2021-02-18 09:00:00 9.6 2 Nordeste 11 Norte 0 1011.2 -- 92
2021-02-18 08:00:00 9.4 9 Norte 13 Nordeste 0 1010.7 -- 92
2021-02-18 07:00:00 9.7 3 Noroeste 11 Oeste 0 1010.3 -- 91
2021-02-18 06:00:00 9.8 6 Noroeste 11 Oeste 0 1010.4 -- 90
2021-02-18 05:00:00 9.7 5 Sudoeste 13 Noroeste 0 1010.7 -- 91
2021-02-18 04:00:00 9.6 10 Norte 13 Norte 0 1010.9 -- 91
2021-02-18 03:00:00 10.1 7 Noroeste 13 Oeste 0 1011.2 -- 91
2021-02-18 02:00:00 10.2 8 Oeste 13 Oeste 0 1011.6 -- 91
2021-02-18 01:00:00 10.3 2 Oeste 13 Noroeste 0 1012.1 -- 91
2021-02-18 00:00:00 10.5 8 Noroeste 11 Oeste 0 1012.5 -- 93
2021-02-17 23:00:00 10.6 5 Sudoeste 17 Sudoeste 0 1012.7 -- 93
2021-02-17 22:00:00 10.5 10 Sudoeste 17 Sur 0 1012.9 -- 92
2021-02-17 21:00:00 10.6 7 Sudoeste 11 Oeste 0 1012.9 -- 92
2021-02-17 20:00:00 10.8 7 Sudoeste 13 Sudoeste 0 1012.7 -- 91
2021-02-17 19:00:00 10.8 6 Sudoeste 15 Sudoeste 0 1012.8 -- 91
2021-02-17 18:00:00 11.4 8 Sudoeste 17 Sur 0 1012.8 -- 85
2021-02-17 17:00:00 12.8 10 Sudoeste 17 Sur 0 1012.8 -- 79
2021-02-17 16:00:00 16 10 Sur 17 Sur 0 1013 -- 65
2021-02-17 15:00:00 15.8 9 Sur 17 Sur 0 1013.7 -- 66
2021-02-17 14:00:00 15 12 Sur 18 Sur 0 1014.4 -- 70
2021-02-17 13:00:00 15.4 11 Sur 18 Sur 0 1015.2 -- 68
2021-02-17 12:00:00 15.2 12 Sur 17 Sur 0 1015.7 -- 68
2021-02-17 11:00:00 14.6 8 Sudoeste 18 Sudoeste 0 1015.9 -- 71
2021-02-17 10:00:00 12.4 6 Sudoeste 11 Sudoeste 0 1015.9 -- 81
2021-02-17 09:00:00 9.4 3 Sur 8 Nordeste 0 1015.8 -- 93
2021-02-17 08:00:00 6.3 6 Nordeste 9 Nordeste 0 1015.4 -- 98
2021-02-17 07:00:00 7.4 0 Calma -- -- 0 1015.3 -- 96
2021-02-17 06:00:00 7.9 10 Norte 15 Norte 0 1015.5 -- 96
2021-02-17 05:00:00 8 10 Norte 15 Norte 0 1015.6 -- 94
2021-02-17 04:00:00 7.8 13 Norte 17 Norte 0 1015.7 -- 94
2021-02-17 03:00:00 7.3 13 Norte 21 Norte 0 1015.7 -- 96
2021-02-17 02:00:00 7.2 12 Nordeste 18 Nordeste 0 1015.6 -- 97
2021-02-17 01:00:00 6.7 11 Norte 13 Norte 0 1015.5 -- 97
2021-02-17 00:00:00 6.9 9 Norte 15 Norte 0 1015.6 -- 95
2021-02-16 23:00:00 7.6 12 Norte 15 Norte 0 1015.7 -- 96
2021-02-16 22:00:00 7.3 12 Norte 13 Norte 0 1015.7 -- 96
2021-02-16 21:00:00 8 0 Calma 8 Oeste 0 1015.6 -- 93
2021-02-16 20:00:00 9.3 6 Oeste 8 Oeste 0 1015.7 -- 91
2021-02-16 19:00:00 10.1 5 Sudoeste 17 Sudoeste 0 1015.6 -- 87
2021-02-16 18:00:00 12.3 13 Sudoeste 21 Sur 0 1015.4 -- 77
2021-02-16 17:00:00 14 17 Sur 26 Sur 0 1015.7 -- 68
2021-02-16 16:00:00 14.6 19 Sur 28 Sur 0 1016.2 -- 62
2021-02-16 15:00:00 15.2 20 Sur 28 Sur 0 1016.8 -- 63
2021-02-16 14:00:00 14.7 19 Sur 32 Sur 0 1017.8 -- 66
2021-02-16 13:00:00 15.1 21 Sur 32 Sudoeste 0 1018.7 -- 64
2021-02-16 12:00:00 14.4 20 Sudoeste 33 Sudoeste 0 1019.4 -- 68
2021-02-16 11:00:00 12.8 22 Sudoeste 33 Sudoeste 0 1019.6 -- 78
2021-02-16 10:00:00 11.8 11 Sudoeste 17 Oeste 0 1019.5 -- 88
2021-02-16 09:00:00 9.8 7 Sudoeste 13 Sudoeste 0 1019.5 -- 95
2021-02-16 08:00:00 10.1 8 Sudoeste 15 Sudoeste 0 1019.6 -- 96
2021-02-16 07:00:00 10.1 7 Oeste 15 Sudoeste 0 1019.8 -- 96
2021-02-16 06:00:00 10.3 10 Sur 17 Sudoeste 0 1020.3 -- 96
2021-02-16 05:00:00 9.7 0 Calma 4 Oeste 0 1020.9 -- 97
2021-02-16 04:00:00 9.6 0 Calma 5 Oeste 0 1021.4 -- 97
2021-02-16 03:00:00 9.3 0 Calma 5 Noroeste 0 1022.2 -- 97
2021-02-16 02:00:00 9.3 5 Noroeste 8 Noroeste 0 1022.9 -- 97
2021-02-16 01:00:00 8.9 5 Norte -- -- 0 1023.7 -- 97
2021-02-16 00:00:00 9 3 Norte 11 Norte 0 1024.1 -- 96
2021-02-15 23:00:00 8.8 9 Norte 13 Norte 0 1024.4 -- 97
2021-02-15 22:00:00 8.8 9 Norte 15 Norte 0 1024.7 -- 96
2021-02-15 21:00:00 8.9 11 Norte 15 Norte 0 1024.8 -- 96
2021-02-15 20:00:00 9.3 6 Norte 8 Nordeste 0 1025.1 -- 94
2021-02-15 19:00:00 9.9 0 Calma 5 Este 0 1025.1 -- 84
2021-02-15 18:00:00 10.2 0 Calma 9 Sur 0 1024.9 -- 80
2021-02-15 17:00:00 10.4 7 Sudoeste 15 Sudoeste 0 1025.1 -- 78
2021-02-15 16:00:00 10.9 0 Calma 8 Noroeste 0 1025.5 -- 79
2021-02-15 15:00:00 10.5 0 Calma 8 Norte 0 1025.9 -- 84
2021-02-15 14:00:00 9.8 0 Calma 5 Sudeste 0 1026.4 -- 89
2021-02-15 13:00:00 9.2 3 Sudeste 13 Sur 0 1026.9 -- 93
2021-02-15 12:00:00 10 7 Sudoeste 11 Sur 0 1027.3 -- 82
2021-02-15 11:00:00 9.4 0 Calma 8 Noroeste 0 1027.4 -- 82
2021-02-15 10:00:00 8.2 6 Norte 11 Noroeste 0 1027.2 -- 92
2021-02-15 09:00:00 7.9 5 Norte 8 Norte 0 1026.9 -- 92
2021-02-15 08:00:00 7.8 6 Oeste 11 Oeste 0 1026.4 -- 90
2021-02-15 07:00:00 7.9 3 Oeste 8 Oeste 0 1026.1 -- 88
2021-02-15 06:00:00 7.9 5 Nordeste 11 Norte 0 1026 -- 87
2021-02-15 05:00:00 7.9 8 Norte 13 Norte 0 1026.4 -- 83
2021-02-15 04:00:00 7.8 9 Norte 15 Norte 0 1026.6 -- 84
2021-02-15 03:00:00 7.7 11 Norte 15 Nordeste 0 1027.1 -- 86
2021-02-15 02:00:00 7.7 12 Norte 15 Norte 0 1027.3 -- 86
2021-02-15 01:00:00 7.6 11 Norte 15 Norte 0 1027.5 -- 86
2021-02-15 00:00:00 7.7 9 Norte 15 Norte 0 1027.4 -- 84
2021-02-14 23:00:00 7.7 9 Norte 17 Norte 0 1027.3 -- 82
2021-02-14 22:00:00 7.6 9 Norte 15 Norte 0 1027.2 -- 85
2021-02-14 21:00:00 7.4 10 Norte 17 Norte 0 1027 -- 89
2021-02-14 20:00:00 7.6 11 Norte 22 Nordeste 0 1027 -- 87
2021-02-14 19:00:00 7.6 15 Nordeste 22 Nordeste 0 1026.8 0.7 89
2021-02-14 18:00:00 7.7 14 Nordeste 24 Nordeste 0 1026.5 0.9 90
2021-02-14 17:00:00 8 15 Este 28 Nordeste 0 1026.2 -- 91
2021-02-14 16:00:00 8 14 Nordeste 26 Nordeste 0.2 1026.1 -- 93
2021-02-14 15:00:00 8.5 15 Este 24 Este 0 1025.6 -- 93
2021-02-14 14:00:00 8.5 16 Este 26 Este 0.8 1025.3 -- 96
2021-02-14 13:00:00 8.8 15 Nordeste 28 Nordeste 0 1025.6 -- 95
2021-02-14 12:00:00 8.9 14 Nordeste 24 Nordeste 0 1025.4 -- 94
2021-02-14 11:00:00 8.9 11 Norte 22 Nordeste 0 1024.7 -- 92
2021-02-14 10:00:00 9 13 Nordeste 26 Nordeste 0 1023.9 -- 90
2021-02-14 09:00:00 9.1 12 Nordeste 30 Nordeste 0 1023.1 -- 87
2021-02-14 08:00:00 9 17 Nordeste 28 Nordeste 0 1022.1 -- 86
2021-02-14 07:00:00 9 17 Nordeste 35 Este 0 1021.4 -- 88
2021-02-14 06:00:00 9.6 20 Este 35 Este 0 1020.2 -- 92
2021-02-14 05:00:00 10.3 19 Este 33 Este 0 1019.7 -- 94
2021-02-14 04:00:00 11.5 13 Sudeste 18 Este 0 1019.2 -- 94
2021-02-14 03:00:00 11.5 8 Este 13 Este 0 1019.1 -- 95
2021-02-14 02:00:00 11.2 6 Norte 15 Nordeste 0 1018.8 -- 93
2021-02-14 01:00:00 11.3 9 Nordeste 13 Nordeste 0 1018.6 -- 94
2021-02-14 00:00:00 11 11 Nordeste 17 Nordeste 0 1018.2 -- 93
2021-02-13 23:00:00 10.8 13 Nordeste 18 Nordeste 0 1017.8 -- 92
2021-02-13 22:00:00 11.5 12 Nordeste 21 Nordeste 0 1017.5 -- 91
2021-02-13 21:00:00 11.2 12 Nordeste 18 Norte 0 1016.9 -- 86
2021-02-13 20:00:00 11.7 11 Norte 17 Norte 0 1015.9 -- 80
2021-02-13 19:00:00 13.6 13 Oeste 18 Oeste 0 1014.5 -- 59
2021-02-13 18:00:00 15.2 9 Sudoeste 17 Oeste 0 1013.7 -- 52
2021-02-13 17:00:00 16 10 Oeste 33 Oeste 0 1013.6 -- 49
2021-02-13 16:00:00 17.5 24 Oeste 33 Noroeste 0 1013.1 -- 45
2021-02-13 15:00:00 18.5 5 Este 13 Este 0 1013.3 -- 44
2021-02-13 14:00:00 17.9 7 Sudeste 15 Sudeste 0 1013.6 -- 46
2021-02-13 13:00:00 16.7 8 Este 21 Sur 0 1014.1 -- 52
2021-02-13 08:00:00 6.8 12 Noroeste 18 Norte 0 1012.8 2.6 88
2021-02-13 07:00:00 6.4 9 Norte 17 Norte 0 1011.9 2.4 89
2021-02-13 06:00:00 8.6 7 Este 21 Sur 0 1011.1 2.3 82
2021-02-13 05:00:00 11.4 8 Este 39 Noroeste 0 1010.2 1.9 62
2021-02-13 04:00:00 11.5 29 Oeste 45 Oeste 0 1009.5 1.5 64
2021-02-13 03:00:00 12.2 5 Noroeste 37 Oeste 0 1008.8 1.4 59
2021-02-13 02:00:00 13.5 14 Oeste 46 Oeste 0 1008.3 1 53
2021-02-13 01:00:00 12.9 12 Norte 41 Este 0 1008 1.1 60
2021-02-13 00:00:00 13 9 Nordeste 30 Norte 0 1007.4 1.3 60
2021-02-12 23:00:00 14 13 Este 26 Sudoeste 0 1007.3 1.3 56
2021-02-12 22:00:00 13.7 10 Este 28 Este 0 1006.9 1.6 59
2021-02-12 21:00:00 13.9 12 Sudeste 32 Este 0 1006.1 1.1 62
2021-02-12 20:00:00 13.7 5 Sudeste 28 Noroeste 0 1006 1.5 65
2021-02-12 19:00:00 13.1 14 Oeste 28 Norte 0 1005.3 1.2 71
2021-02-12 18:00:00 13.3 16 Oeste 42 Oeste 0 1005 0.4 72
2021-02-12 17:00:00 14.4 25 Oeste 52 Oeste 0 1004.5 -0.7 65
2021-02-12 16:00:00 15.2 21 Oeste 45 Oeste 0 1004.1 -2 58
2021-02-12 15:00:00 16.1 22 Oeste 41 Oeste 0 1004.6 -1.2 61
2021-02-12 14:00:00 15.2 26 Oeste 42 Noroeste 0 1005.2 -0.7 69
2021-02-12 13:00:00 15 20 Sudoeste 30 Sudoeste 0 1006.1 0.4 67
2021-02-12 12:00:00 17.3 11 Sur 18 Sur 0 1005.8 -0.3 60
2021-02-12 11:00:00 15.3 5 Este 15 Nordeste 0 1005.9 -0.2 66
2021-02-12 10:00:00 13 13 Nordeste 21 Norte 0 1005.7 -1 72
2021-02-12 09:00:00 10.6 15 Norte 22 Norte 0 1006.1 -- 83
2021-02-12 08:00:00 8.4 10 Norte 13 Norte 0 1006.1 -- 92
2021-02-12 07:00:00 7.7 5 Noroeste 11 Noroeste 0 1006.7 -- 90
2021-02-12 06:00:00 8.8 10 Noroeste 13 Noroeste 0 1007.1 -- 88
2021-02-12 05:00:00 8.7 6 Nordeste 15 Nordeste 0 1006.9 -- 88
2021-02-12 04:00:00 8.3 10 Nordeste 15 Nordeste 0 1006.9 -- 90
2021-02-12 03:00:00 8.3 11 Norte 15 Norte 0 1007.7 -- 90
2021-02-12 02:00:00 7.9 9 Nordeste 11 Nordeste 0 1008.1 -- 88
2021-02-12 01:00:00 8.6 8 Nordeste 11 Este 0 1008.5 -- 84
2021-02-12 00:00:00 9 6 Noroeste 13 Norte 0 1008.7 -- 82
2021-02-11 23:00:00 7.5 3 Este 11 Nordeste 0 1008.9 -- 84
2021-02-11 22:00:00 8.8 5 Nordeste 13 Norte 0 1009 -- 79
2021-02-11 21:00:00 9.4 10 Norte 11 Norte 0 1008.6 -- 83
2021-02-11 20:00:00 10.2 4 Este 11 Sur 0 1008.5 -- 78
2021-02-11 19:00:00 12 11 Sudoeste 17 Sudoeste 0 1007.9 -- 71
2021-02-11 18:00:00 14.4 8 Sudoeste 21 Sur 0 1007.7 -- 54
2021-02-11 17:00:00 16.4 16 Sudoeste 32 Sur 0 1007.4 -- 43
2021-02-11 16:00:00 16.2 23 Sudoeste 35 Sudoeste 0 1007.2 -- 46
2021-02-11 15:00:00 19.8 22 Sudoeste 45 Oeste 0 1006.8 -- 41
2021-02-11 14:00:00 18.8 29 Sudoeste 41 Sudoeste 0 1007.4 -- 42
2021-02-11 13:00:00 17.8 10 Este 18 Este 0 1008.3 -- 45
2021-02-11 12:00:00 16.7 3 Norte 13 Sudoeste 0 1008.8 -- 42
2021-02-11 11:00:00 14.6 7 Este 15 Este 0 1008.8 -- 48
2021-02-11 10:00:00 10.9 8 Norte 17 Nordeste 0 1008.5 -- 60
2021-02-11 09:00:00 9.2 12 Nordeste 17 Nordeste 0 1008 -- 66
2021-02-11 08:00:00 6.6 9 Nordeste 22 Oeste 0 1007.5 -- 73
2021-02-11 07:00:00 8.1 16 Oeste 22 Sudoeste 0 1007.5 -- 66
2021-02-11 06:00:00 8.6 14 Sudoeste 22 Sudoeste 0 1007.3 -- 64
2021-02-11 05:00:00 6.9 14 Oeste 22 Oeste 0 1007.2 -- 72
2021-02-11 04:00:00 8.2 18 Oeste 28 Oeste 0 1007.2 -- 67
2021-02-11 03:00:00 9.9 21 Oeste 30 Sudoeste 0 1007.4 -- 59
2021-02-11 02:00:00 10.5 20 Sudoeste 30 Sudoeste 0 1007.1 -- 55
2021-02-11 01:00:00 11.4 18 Sudoeste 30 Sur 0 1006.4 -- 51
2021-02-11 00:00:00 9.3 11 Norte 22 Norte 0 1004.9 -- 57
2021-02-10 23:00:00 11 5 Este 28 Noroeste 0 1005.5 -- 49
2021-02-10 22:00:00 12.1 11 Norte 30 Noroeste 0 1004.8 -- 45
2021-02-10 21:00:00 12.1 6 Este 37 Noroeste 0 1004 -- 46
2021-02-10 20:00:00 12.7 18 Noroeste 46 Oeste 0 1003.1 -- 47
2021-02-10 19:00:00 13 22 Oeste 50 Noroeste 0 1002.2 -- 47
2021-02-10 18:00:00 14.1 26 Noroeste 42 Oeste 0 1000.8 -- 44
2021-02-10 17:00:00 15.3 22 Noroeste 45 Oeste 0 1000.3 -- 43
2021-02-10 16:00:00 15.3 32 Noroeste 54 Noroeste 0 999.1 -- 43
2021-02-10 15:00:00 15.6 27 Oeste 54 Noroeste 0 998.3 -- 45
2021-02-10 14:00:00 13.6 35 Noroeste 65 Noroeste 0 997.3 -- 53
2021-02-10 13:00:00 12.2 37 Noroeste 71 Oeste 0 996.9 -- 58
2021-02-10 12:00:00 12.6 36 Noroeste 65 Oeste 0 995.7 -- 59
2021-02-10 11:00:00 12.2 26 Oeste 39 Oeste 0 995.5 -- 64
2021-02-10 10:00:00 9.2 12 Oeste 22 Oeste 0 994.3 -- 83
2021-02-10 09:00:00 8.4 6 Sudoeste 33 Oeste 0.6 993.6 -- 86
2021-02-10 08:00:00 7.9 2 Oeste 17 Noroeste 0 993.4 -- 83
2021-02-10 07:00:00 7.4 15 Noroeste 18 Noroeste 0 992.7 -- 87
2021-02-10 06:00:00 6.7 7 Norte 15 Norte 0 993.3 -- 89
2021-02-10 05:00:00 6.4 9 Norte 13 Norte 0 993.5 -- 89
2021-02-10 04:00:00 8.4 6 Oeste 28 Sudoeste 0 993.6 -- 79
2021-02-10 03:00:00 9 13 Oeste 24 Sudoeste 0 994 -- 75
2021-02-10 02:00:00 9.4 19 Oeste 30 Oeste 0 993.7 -- 72
2021-02-10 01:00:00 10 18 Oeste 39 Oeste 0 993.7 -- 71
2021-02-10 00:00:00 10.1 17 Oeste 33 Oeste 0 993.5 -- 74
2021-02-09 23:00:00 8.9 16 Oeste 24 Oeste 0 993.6 -- 84
2021-02-09 22:00:00 9.4 19 Oeste 30 Oeste 0 992.7 -- 87
2021-02-09 21:00:00 9 9 Noroeste 11 Oeste 0 992.5 -- 95
2021-02-09 20:00:00 10.2 3 Sudoeste 22 Oeste 1 992.1 -- 92
2021-02-09 19:00:00 11.4 11 Oeste 21 Sudoeste 0 992.8 -- 84
2021-02-09 18:00:00 12.6 11 Sudoeste 26 Sudoeste 0 992.2 -- 76
2021-02-09 17:00:00 12.8 11 Sudoeste 22 Sudoeste 0 992.5 -- 69
2021-02-09 16:00:00 12.1 3 Norte 11 Sur 0 993.1 -- 72
2021-02-09 15:00:00 12.1 9 Sur 17 Sur 0 993.9 -- 69
2021-02-09 14:00:00 12.3 12 Sur 17 Sur 0 995 -- 73
2021-02-09 13:00:00 13.9 5 Sudeste 13 Sur 0 995.6 -- 64
2021-02-09 12:00:00 13.8 12 Sur 18 Sur 0 997.3 -- 55
2021-02-09 11:00:00 13.4 12 Sudoeste 22 Oeste 0 996.9 -- 55
2021-02-09 10:00:00 12 10 Oeste 15 Oeste 0 997.1 -- 61
2021-02-09 09:00:00 9.1 9 Oeste 22 Oeste 0 997.4 -- 72
2021-02-09 08:00:00 8.7 10 Noroeste 21 Oeste 0 997.6 -- 71
2021-02-09 07:00:00 9.2 18 Oeste 28 Sudoeste 0 996.9 -- 68
2021-02-09 06:00:00 9.7 23 Oeste 30 Oeste 0 996.4 -- 66
2021-02-09 05:00:00 8.9 15 Oeste 33 Oeste 0 995.9 -- 69
2021-02-09 04:00:00 9.3 18 Sudoeste 32 Oeste 0 995.6 -- 64
2021-02-09 03:00:00 9.7 14 Sudoeste 30 Sudoeste 0 995.8 -- 63
2021-02-09 02:00:00 10.2 13 Sur 32 Sudoeste 0 995.3 -- 62
2021-02-09 01:00:00 10.6 17 Sudoeste 33 Sudoeste 0 995 -- 61
2021-02-09 00:00:00 10.5 13 Sudoeste 39 Oeste 0 994.2 -- 62
2021-02-08 23:00:00 10 5 Sudoeste 24 Oeste 0 993.8 -- 64
2021-02-08 22:00:00 7.5 5 Sur 17 Norte 0 993.2 -- 80
2021-02-08 21:00:00 7.8 5 Nordeste 13 Nordeste 0 992.5 -- 83
2021-02-08 20:00:00 8 4 Sudeste 11 Noroeste 0 991.8 -- 90
2021-02-08 19:00:00 9.6 3 Oeste 11 Sur 0 990.8 -- 84
2021-02-08 18:00:00 12.3 7 Sudoeste 45 Oeste 0 990.2 -- 71
2021-02-08 17:00:00 14.2 26 Oeste 37 Oeste 0 989.2 -- 58
2021-02-08 16:00:00 15.4 23 Oeste 37 Oeste 0 988.9 -- 54
2021-02-08 15:00:00 13.8 10 Oeste 24 Oeste 0 989.2 -- 67
2021-02-08 14:00:00 10.5 10 Sudoeste 26 Sudoeste 0.2 990.1 -- 88
2021-02-08 13:00:00 9.9 15 Sudoeste 24 Sudoeste 1.7 991.4 -- 93
2021-02-08 12:00:00 10.7 12 Oeste 17 Oeste 0.4 991.5 -- 83
2021-02-08 11:00:00 9.8 8 Oeste 13 Oeste 0.2 991.5 -- 85
2021-02-08 10:00:00 10.9 6 Sur 13 Norte 0 991.2 -- 65
2021-02-08 09:00:00 8.6 10 Norte 13 Norte 0 991.3 -- 71
2021-02-08 08:00:00 7.9 8 Nordeste 17 Oeste 0 991.4 -- 73
2021-02-08 07:00:00 9.7 16 Sudoeste 26 Sudoeste 0 991.3 -- 63
2021-02-08 06:00:00 9.2 19 Sudoeste 26 Sudoeste 0 991.9 -- 64
2021-02-08 05:00:00 8.9 18 Sudoeste 24 Sudoeste 0 992.3 -- 64
2021-02-08 04:00:00 9.1 17 Sudoeste 26 Sur 0 992.6 -- 62
2021-02-08 03:00:00 9.4 17 Sur 26 Sudoeste 0 993 -- 58
2021-02-08 02:00:00 9.8 17 Sudoeste 26 Sudoeste 0 993.2 -- 55
2021-02-08 01:00:00 9.5 18 Sudoeste 26 Sudoeste 0 993.6 -- 54
2021-02-08 00:00:00 9.1 13 Sudoeste 22 Sudoeste 0 994.2 -- 55
2021-02-07 23:00:00 9.5 17 Sudoeste 26 Sudoeste 0 994.9 -- 53
2021-02-07 22:00:00 9.6 15 Sudoeste 22 Sudoeste 0 995 -- 54
2021-02-07 21:00:00 9.9 16 Sudoeste 26 Sudoeste 0 994.9 -- 52
2021-02-07 20:00:00 9.1 10 Sur 15 Sudoeste 0 994.9 -- 59
2021-02-07 19:00:00 10.3 10 Sudoeste 22 Oeste 0 994.8 -- 54
2021-02-07 18:00:00 11.6 15 Oeste 37 Oeste 0 994.3 -- 48
2021-02-07 17:00:00 12.2 16 Oeste 32 Oeste 0 994 -- 48
2021-02-07 16:00:00 14 21 Oeste 45 Oeste 0 993.9 -- 41
2021-02-07 15:00:00 13.9 30 Oeste 42 Oeste 0 993.7 -- 41
2021-02-07 14:00:00 13.4 32 Oeste 46 Oeste 0 994.1 -- 42
2021-02-07 13:00:00 12.6 31 Oeste 46 Oeste 0 994.7 -- 44
2021-02-07 12:00:00 11.2 26 Oeste 48 Noroeste 0 995.2 -- 49
2021-02-07 11:00:00 10 30 Oeste 46 Oeste 0 995.1 -- 53
2021-02-07 10:00:00 7.6 34 Oeste 48 Oeste 0 994.7 -- 61
2021-02-07 09:00:00 7.5 33 Oeste 50 Oeste 0 994.6 -- 62
2021-02-07 08:00:00 7.8 36 Oeste -- -- -- 993.6 -- 63
2021-02-07 07:00:00 -- -- -- -- -- -- -- -- --
2021-02-07 06:00:00 8.6 27 Oeste 54 Oeste 0 993.4 -- 65
2021-02-07 05:00:00 8.8 30 Oeste 42 Oeste 0 993.1 -- 66
2021-02-07 04:00:00 9.2 27 Oeste 42 Oeste 0 993 -- 66
2021-02-07 03:00:00 9 24 Oeste 41 Oeste 0 992.9 -- 69
2021-02-07 02:00:00 9.4 20 Noroeste 33 Oeste 0 993.3 -- 71
2021-02-07 01:00:00 9.8 23 Noroeste 41 Noroeste 0 993.2 -- 73
2021-02-07 00:00:00 10.2 27 Noroeste 45 Noroeste 0 992.8 -- 72
2021-02-06 23:00:00 10.9 29 Noroeste 45 Oeste 0 993 -- 77
2021-02-06 22:00:00 12.4 21 Oeste 37 Oeste 0 992.9 -- 73
2021-02-06 21:00:00 12.8 21 Oeste 35 Oeste 0 992.6 -- 73
2021-02-06 20:00:00 11.9 0 Calma 5 Sudoeste 0 992.5 -- 94
2021-02-06 19:00:00 12.2 5 Sudoeste 11 Sudoeste 0 992.2 -- 91
2021-02-06 18:00:00 12.8 8 Sudoeste 15 Sudoeste 0 991.9 -- 86
2021-02-06 17:00:00 13.7 12 Sudoeste 22 Sudoeste 0 991.8 -- 81
2021-02-06 16:00:00 16.1 18 Sur 28 Sudoeste 0 991.5 -- 67
2021-02-06 15:00:00 16.9 18 Sur 30 Sur 0 991.7 -- 60
2021-02-06 14:00:00 17.3 21 Sur 33 Sudoeste 0 992.1 -- 60
2021-02-06 13:00:00 16.1 22 Sur 30 Sur 0 992.8 -- 72
2021-02-06 12:00:00 17.1 2 Este 18 Nordeste 0 992.8 -- 69
2021-02-06 11:00:00 15.3 12 Nordeste 24 Nordeste 0 992.4 -- 78
2021-02-06 10:00:00 14 17 Nordeste 30 Este 0 992.5 -- 82
2021-02-06 09:00:00 13.5 20 Este 32 Este 0 992.2 -- 80
2021-02-06 08:00:00 13.3 13 Nordeste 28 Nordeste 0 991.6 -- 77
2021-02-06 07:00:00 13.9 16 Este 32 Este 0 991.6 -- 70
2021-02-06 06:00:00 14.6 16 Este 26 Este 0 991.4 -- 63
2021-02-06 05:00:00 14.5 9 Nordeste 24 Nordeste 0 992.5 -- 60
2021-02-06 04:00:00 14 9 Nordeste 18 Este 0 992.8 -- 62
2021-02-06 03:00:00 14.4 5 Sudeste 15 Este 0 993.9 -- 60
2021-02-06 02:00:00 14.7 12 Nordeste 24 Nordeste 0 994.2 -- 59
2021-02-06 01:00:00 12.4 17 Nordeste 24 Nordeste 0 995.1 -- 73
2021-02-06 00:00:00 9.5 5 Nordeste 9 Norte 0 996.4 -- 94
2021-02-05 23:00:00 10 7 Noroeste 15 Noroeste 0 996.6 -- 93
2021-02-05 22:00:00 9.4 2 Oeste 9 Nordeste 0 997.2 -- 93
2021-02-05 21:00:00 10.1 2 Noroeste 11 Noroeste 0 997.5 -- 92
2021-02-05 20:00:00 11.3 4 Norte 15 Este 0 998.2 -- 90
2021-02-05 19:00:00 11.6 12 Este 18 Este 0 998.1 -- 89
2021-02-05 18:00:00 12.9 4 Este 26 Este 0 998.5 -- 80
2021-02-05 17:00:00 13.8 13 Este 24 Este 0 998.4 -- 75
2021-02-05 16:00:00 15 13 Sudeste 30 Sudeste 0 999.3 -- 71
2021-02-05 15:00:00 15.4 22 Este 33 Sudeste 0 999.7 -- 71
2021-02-05 14:00:00 15.8 13 Sudeste 21 Sur 0 1001 -- 68
2021-02-05 13:00:00 15.3 7 Sudeste 17 Sudeste 0 1001.7 -- 65
2021-02-05 12:00:00 13.5 9 Este 18 Este 0 1002.4 -- 73
2021-02-05 11:00:00 12.4 9 Este 21 Nordeste 0 1002.8 -- 79
2021-02-05 10:00:00 12 6 Este 17 Nordeste 0 1002.7 -- 82
2021-02-05 09:00:00 10.9 6 Este 18 Nordeste 0 1002.6 -- 89
2021-02-05 08:00:00 10.8 12 Nordeste 22 Norte 0 1001.5 -- 88
2021-02-05 07:00:00 10.7 9 Nordeste 21 Nordeste 0 1002.8 -- 88
2021-02-05 06:00:00 10.5 9 Nordeste 13 Nordeste 0 1002.6 -- 90
2021-02-05 05:00:00 9.9 7 Noroeste 9 Noroeste 0 1003.3 -- 92
2021-02-05 04:00:00 9.5 7 Norte 9 Norte 0 1002.4 -- 92
2021-02-05 03:00:00 9.8 0 Calma 13 Norte 0 1003 -- 90
2021-02-05 02:00:00 10.5 4 Este 15 Norte 0 1003.1 -- 87
2021-02-05 01:00:00 10.8 8 Nordeste 15 Nordeste 0 1003.7 -- 86
2021-02-05 00:00:00 10.9 6 Nordeste 9 Nordeste 0 1004.1 -- 88
2021-02-04 23:00:00 11.1 4 Nordeste 9 Este 0 1003.9 -- 91
2021-02-04 22:00:00 11.1 8 Nordeste 11 Nordeste 0 1003.9 -- 91
2021-02-04 21:00:00 11.4 9 Este 15 Este 0 1003.8 -- 91
2021-02-04 20:00:00 11.6 9 Nordeste 11 Nordeste 0 1003.8 -- 89
2021-02-04 19:00:00 11.5 9 Este 11 Este 0 1003.2 -- 89
2021-02-04 18:00:00 11.9 6 Este 13 Sudeste 0 1002.8 -- 87
2021-02-04 17:00:00 12 7 Este 13 Este 0 1002.5 -- 87
2021-02-04 16:00:00 12.6 7 Sudeste 17 Sudeste 0 1002.8 -- 84
2021-02-04 15:00:00 13.3 8 Sur 17 Este 0 1003 -- 82
2021-02-04 14:00:00 13.3 11 Este 18 Sur 0 1003 -- 81
2021-02-04 13:00:00 15.3 12 Sudeste 17 Sudeste 0 1004.1 -- 72
2021-02-04 12:00:00 15.6 10 Sudeste 17 Sudeste 0 1004.9 -- 71
2021-02-04 11:00:00 15.4 9 Sudeste 13 Sudeste 0 1005.2 -- 74
2021-02-04 10:00:00 12.3 2 Este 17 Norte 0 1004.8 -- 74
2021-02-04 09:00:00 8.9 12 Nordeste 15 Nordeste 0 1004.2 -- 87
2021-02-04 08:00:00 7.6 8 Norte 11 Norte 0 1004 -- 92
2021-02-04 07:00:00 7.2 5 Nordeste 13 Norte 0 1004 -- 91
2021-02-04 06:00:00 7.6 6 Nordeste 9 Norte 0 1004 -- 90
2021-02-04 05:00:00 7.5 8 Norte 9 Norte 0 1003.8 -- 90
2021-02-04 04:00:00 8.2 8 Norte 11 Norte 0 1004.3 -- 89
2021-02-04 03:00:00 8.6 3 Norte 8 Norte 0 1005 -- 85
2021-02-04 02:00:00 9.9 8 Norte 11 Norte 0 1005.1 -- 80
2021-02-04 01:00:00 10.6 8 Nordeste 18 Nordeste 0 1005.2 -- 78
2021-02-04 00:00:00 11.8 13 Norte 17 Nordeste 0 1004.8 -- 73
2021-02-03 23:00:00 11.9 4 Norte 17 Norte 0 1005 -- 72
2021-02-03 22:00:00 11.5 12 Norte 17 Norte 0 1004.8 -- 79
2021-02-03 21:00:00 11.4 10 Nordeste 11 Nordeste 0 1004.5 -- 82
2021-02-03 20:00:00 12.9 0 Calma 13 Sur 0 1004.5 -- 76
2021-02-03 19:00:00 14.4 11 Sur 15 Sur 0 1003.9 -- 66
2021-02-03 18:00:00 16 9 Sudeste 11 Sudeste 0 1003.2 -- 57
2021-02-03 17:00:00 18.8 6 Norte 9 Norte 0 1002.8 -- 46
2021-02-03 16:00:00 20.1 10 Noroeste 18 Oeste 0 1002.8 -- 40
2021-02-03 15:00:00 21 3 Norte 17 Sudoeste 0 1002.7 -- 36
2021-02-03 14:00:00 22 7 Sudeste 18 Sudoeste 0 1002.9 -- 34
2021-02-03 13:00:00 20.3 7 Sur 15 Sur 0 1003.5 -- 38
2021-02-03 12:00:00 18.6 5 Nordeste 13 Sudeste 0 1004.2 -- 44
2021-02-03 11:00:00 17.4 9 Oeste 15 Noroeste 0 1004.2 -- 47
2021-02-03 10:00:00 13.7 12 Noroeste 17 Norte 0 1004 -- 68
2021-02-03 09:00:00 8.8 13 Norte 17 Norte 0 1003.5 -- 84
2021-02-03 08:00:00 7 10 Norte 13 Norte 0 1003 -- 89
2021-02-03 07:00:00 7.1 7 Norte 15 Norte 0 1002.5 -- 89
2021-02-03 06:00:00 7.2 5 Noroeste 11 Noroeste 0 1002.6 -- 90
2021-02-03 05:00:00 6.8 6 Norte 13 Norte 0 1002.7 -- 91
2021-02-03 04:00:00 7.2 8 Norte 11 Norte 0 1003 -- 89
2021-02-03 03:00:00 7.4 6 Noroeste 9 Noroeste 0 1003.6 -- 89
2021-02-03 02:00:00 7.9 4 Nordeste 8 Nordeste 0 1004.1 -- 85
2021-02-03 01:00:00 9.1 6 Nordeste 15 Nordeste 0 1004.4 -- 83
2021-02-03 00:00:00 9.1 8 Nordeste 17 Norte 0 1004.6 -- 82
2021-02-02 23:00:00 9.9 10 Norte 17 Nordeste 0 1004.8 -- 81
2021-02-02 22:00:00 11.3 13 Norte 17 Norte 0 1005.2 -- 76
2021-02-02 21:00:00 10.2 11 Norte 13 Norte 0 1005.1 -- 79
2021-02-02 20:00:00 12 5 Noroeste 9 Oeste 0 1005 -- 74
2021-02-02 19:00:00 13.7 9 Oeste 17 Sudoeste 0 1004.8 -- 70
2021-02-02 18:00:00 15.8 10 Sudoeste 26 Sudoeste 0 1004.7 -- 61
2021-02-02 17:00:00 19.3 20 Sudoeste 32 Sudoeste 0 1004.1 -- 48
2021-02-02 16:00:00 21.2 25 Oeste 37 Oeste 0 1004 -- 41
2021-02-02 15:00:00 21.6 18 Oeste 37 Noroeste 0 1004.3 -- 38
2021-02-02 14:00:00 20.9 27 Oeste 42 Oeste 0 1004.5 -- 41
2021-02-02 13:00:00 20.5 27 Oeste 42 Oeste 0 1005.1 -- 41
2021-02-02 12:00:00 19.5 15 Oeste 30 Oeste 0 1005.6 -- 45
2021-02-02 11:00:00 18.8 20 Oeste 54 Oeste 0 1005.4 -- 48
2021-02-02 10:00:00 17.2 33 Oeste 52 Oeste 0 1005.3 -- 53
2021-02-02 09:00:00 15 36 Oeste 46 Oeste 0 1004.8 -- 59
2021-02-02 08:00:00 13.5 23 Sudoeste -- -- -- 1004.8 -- 63
2021-02-02 07:00:00 12.4 14 Sudoeste 33 Sur 0 1004.6 -- 67
2021-02-02 06:00:00 12.2 14 Sur 22 Oeste 0 1004.5 -- 67
2021-02-02 05:00:00 13.1 11 Sur 26 Sudoeste 0 1004.2 -- 63
2021-02-02 04:00:00 14.4 20 Sudoeste 48 Oeste 0 1003.5 -- 58
2021-02-02 03:00:00 14.2 21 Oeste 32 Oeste 0 1003.4 -- 60
2021-02-02 02:00:00 14.6 12 Sudoeste 30 Oeste 0 1003.2 -- 60
2021-02-02 01:00:00 15.3 15 Oeste 33 Oeste 0 1002.2 -- 56
2021-02-02 00:00:00 16.7 24 Oeste 58 Noroeste 0 1001.8 -- 49
2021-02-01 23:00:00 17 24 Oeste 61 Noroeste 0 1002.3 -- 48
2021-02-01 22:00:00 17.4 44 Oeste 59 Oeste 0 1000.9 -- 48
2021-02-01 21:00:00 17.7 37 Oeste 61 Oeste 0 1000.4 -- 45
2021-02-01 20:00:00 18 30 Sur 48 Sur 0 1000.4 -- 41
2021-02-01 19:00:00 17.8 35 Sudoeste 71 Sudoeste 0 998.6 -- 44
2021-02-01 18:00:00 18.3 19 Oeste 104 Noroeste 0 997.6 -- 40
2021-02-01 17:00:00 19.2 66 Oeste 115 Oeste 0 993.1 -- 35
2021-02-01 16:00:00 19.8 70 Noroeste 121 Oeste 0 992.7 -- 32
2021-02-01 15:00:00 19.6 67 Noroeste 111 Noroeste 0 994.2 -- 31
2021-02-01 14:00:00 19.2 65 Oeste 98 Noroeste 0 994.9 -- 32
2021-02-01 13:00:00 18.3 69 Oeste 102 Oeste 0 995.4 -- 34
2021-02-01 12:00:00 17.7 66 Oeste 105 Oeste 0 995.4 -- 36
2021-02-01 11:00:00 16.6 62 Oeste 89 Oeste 0 994.9 -- 40
2021-02-01 10:00:00 15.2 59 Oeste 84 Noroeste 0 995 -- 45
2021-02-01 09:00:00 14.4 52 Oeste 82 Oeste 0 994.2 -- 47
2021-02-01 08:00:00 14.6 55 Oeste 102 Oeste 0 993.6 -- 46
2021-02-01 07:00:00 15.3 59 Oeste 87 Oeste 0 991 -- 45
2021-02-01 06:00:00 15.5 12 Sudoeste 76 Noroeste 0 992.5 -- 44
2021-02-01 05:00:00 16 40 Oeste 96 Noroeste 0 990.8 -- 42
2021-02-01 04:00:00 16.2 41 Noroeste 80 Oeste 0 990.7 -- 44
2021-02-01 03:00:00 16.7 38 Oeste 59 Oeste 0 992.1 -- 43
2021-02-01 02:00:00 16.4 21 Oeste 58 Oeste 0 993.3 -- 46
2021-02-01 01:00:00 16.5 37 Oeste 61 Oeste 0 993.1 -- 49
2021-02-01 00:00:00 16.1 39 Oeste 58 Oeste 0 993.3 -- 53
2021-01-31 23:00:00 14.3 10 Sudoeste 32 Noroeste 0 994.2 -- 61
2021-01-31 22:00:00 15.1 18 Sur 33 Sur 0 994.6 -- 57
2021-01-31 21:00:00 15.7 21 Sudoeste 39 Sudoeste 0 994.7 -- 55
2021-01-31 20:00:00 15.9 22 Oeste 45 Oeste 0 994.7 -- 54
2021-01-31 19:00:00 15.3 16 Sudoeste 42 Noroeste 0 994.9 -- 54
2021-01-31 18:00:00 17 25 Oeste 54 Oeste 0 995 -- 47
2021-01-31 17:00:00 17 35 Oeste 58 Oeste 0 994.9 -- 47
2021-01-31 16:00:00 18.1 24 Oeste 54 Oeste 0 995.1 -- 38
2021-01-31 15:00:00 17.1 33 Oeste 54 Oeste 0 995.6 -- 40
2021-01-31 14:00:00 15.9 39 Oeste 67 Oeste 0 996.2 -- 40
2021-01-31 13:00:00 17 42 Oeste 67 Oeste 0 996.4 -- 39
2021-01-31 12:00:00 14.5 56 Oeste 78 Oeste 0 995.9 -- 45
2021-01-31 11:00:00 13.6 45 Noroeste 72 Oeste 0 996 -- 48
2021-01-31 10:00:00 13.7 41 Oeste 78 Noroeste 0 996.1 -- 46
2021-01-31 09:00:00 12.5 45 Oeste 84 Oeste 0 995.3 -- 49
2021-01-31 08:00:00 12 57 Oeste 84 Oeste 0 995.1 -- 50
2021-01-31 07:00:00 11.6 30 Oeste 59 Oeste 0 994.8 -- 50
2021-01-31 06:00:00 11.2 24 Sudoeste 54 Oeste 0 995 -- 53
2021-01-31 05:00:00 11.6 20 Sudoeste 50 Oeste 0 995.2 -- 50
2021-01-31 04:00:00 11.7 30 Oeste 54 Oeste 0 995.1 -- 50
2021-01-31 03:00:00 11.6 30 Oeste 48 Oeste 0 995.3 -- 51
2021-01-31 02:00:00 11.3 18 Oeste 46 Oeste 0 996 -- 55
2021-01-31 01:00:00 11.8 30 Oeste 50 Oeste 0 996.1 -- 52
2021-01-31 00:00:00 12 29 Oeste 42 Oeste 0 995.8 -- 49
2021-01-30 23:00:00 12.3 26 Oeste 50 Oeste 0 996.5 -- 47
2021-01-30 22:00:00 11.8 16 Oeste 41 Oeste 0 996.1 -- 47
2021-01-30 21:00:00 11.1 15 Sudoeste 39 Oeste 0 996 -- 54
2021-01-30 20:00:00 11.3 22 Oeste 76 Noroeste 0 995.9 -- 62
2021-01-30 19:00:00 14.1 7 Norte 35 Noroeste 0 995.2 -- 42
2021-01-30 18:00:00 15.3 17 Noroeste 52 Norte 0 994.7 -- 44
2021-01-30 17:00:00 17.5 36 Oeste 67 Oeste 0 994 -- 31
2021-01-30 16:00:00 18.4 38 Oeste 65 Oeste 0 993.8 -- 30
2021-01-30 15:00:00 19.3 40 Oeste 67 Oeste 0 994.4 -- 33
2021-01-30 14:00:00 18.7 36 Oeste 59 Oeste 0 994.7 -- 37
2021-01-30 13:00:00 17.9 41 Oeste 65 Oeste 0 996.5 -- 44
2021-01-30 12:00:00 17.5 42 Oeste 65 Noroeste 0 996.7 -- 45
2021-01-30 11:00:00 15.4 23 Oeste 55 Oeste 0 998 -- 60
2021-01-30 10:00:00 15.3 19 Oeste 39 Oeste 0 997.9 -- 61
2021-01-30 09:00:00 15.1 21 Oeste 42 Oeste 0 998.7 -- 60
2021-01-30 08:00:00 11.1 10 Nordeste 17 Este 0 999.1 -- 80
2021-01-30 07:00:00 10.5 3 Este 13 Noroeste 0 999.9 -- 82
2021-01-30 06:00:00 10.2 5 Norte 17 Noroeste 0 1000.9 -- 82
2021-01-30 05:00:00 10.6 13 Noroeste 21 Norte 0 1001 -- 81
2021-01-30 04:00:00 11.8 12 Noroeste 15 Noroeste 0 1002.2 -- 77
2021-01-30 03:00:00 13 8 Sur 17 Sudoeste 0 1003.5 -- 71
2021-01-30 02:00:00 13.4 12 Sudoeste 24 Sudoeste 0 1004 -- 70
2021-01-30 01:00:00 14.3 18 Sur 26 Sur 0 1004.7 -- 67
2021-01-30 00:00:00 14.3 13 Sur 21 Sur 0 1005.3 -- 68
2021-01-29 23:00:00 15.5 14 Oeste 21 Oeste 0 1005.4 -- 62
2021-01-29 22:00:00 15.8 3 Oeste 24 Sudoeste 0 1006.1 -- 61
2021-01-29 21:00:00 16.7 18 Oeste 32 Oeste 0 1006.2 -- 59
2021-01-29 20:00:00 17.2 24 Oeste 39 Oeste 0 1006.1 -- 58
2021-01-29 19:00:00 17.4 25 Oeste 37 Oeste 0 1006 -- 56
2021-01-29 18:00:00 18.4 24 Oeste 33 Oeste 0 1006 -- 53
2021-01-29 17:00:00 20.8 26 Oeste 45 Oeste 0 1005.7 -- 46
2021-01-29 16:00:00 22 24 Oeste 46 Oeste 0 1005.9 -- 40
2021-01-29 15:00:00 22.1 29 Oeste 46 Oeste 0 1005.8 -- 41
2021-01-29 14:00:00 21.5 28 Oeste 45 Sudoeste 0 1006.5 -- 44
2021-01-29 13:00:00 19.9 30 Sudoeste 42 Sudoeste 0 1007.5 -- 51
2021-01-29 12:00:00 18.9 31 Sudoeste 42 Sudoeste 0 1007.8 -- 54
2021-01-29 11:00:00 18.4 29 Oeste 41 Oeste 0 1007.9 -- 55
2021-01-29 10:00:00 17 32 Sudoeste 46 Oeste 0 1008.1 -- 58
2021-01-29 09:00:00 16.1 34 Oeste 45 Oeste 0 1007.7 -- 60
2021-01-29 08:00:00 15.8 28 Oeste 50 Oeste 0 1007.5 -- 61
2021-01-29 07:00:00 16.5 31 Oeste 45 Oeste 0 1007.2 -- 60
2021-01-29 06:00:00 16.1 24 Oeste 32 Oeste 0 1007.5 -- 64
2021-01-29 05:00:00 16.9 18 Oeste 30 Oeste 0 1007.3 -- 60
2021-01-29 04:00:00 16.6 21 Oeste 35 Oeste 0 1007.2 -- 61
2021-01-29 03:00:00 17.1 20 Oeste 30 Oeste 0 1007.6 -- 62
2021-01-29 02:00:00 16.7 9 Sur 22 Sur 0 1008 -- 65
2021-01-29 01:00:00 17.5 17 Sur 26 Sudoeste 0 1008.6 -- 63
2021-01-29 00:00:00 16.9 12 Sudoeste 24 Sur 0 1008.5 -- 67
2021-01-28 23:00:00 13.1 8 Norte 17 Oeste 0 1008.9 -- 81
2021-01-28 22:00:00 14.5 3 Este 21 Sudoeste 0 1009.1 -- 74
2021-01-28 21:00:00 17.4 6 Sur 13 Sur 0 1009.2 -- 61
2021-01-28 20:00:00 16.9 10 Sudoeste 18 Oeste 0 1009.5 -- 63
2021-01-28 19:00:00 17.6 15 Sudoeste 22 Sudoeste 0 1009.3 -- 61
2021-01-28 18:00:00 18.4 15 Sudoeste 39 Oeste 0 1009 -- 58
2021-01-28 17:00:00 23.3 22 Sudoeste 32 Sudoeste 0 1008.6 -- 40
2021-01-28 16:00:00 24.2 14 Oeste 30 Sudoeste 0 1008.5 -- 36
2021-01-28 15:00:00 23.1 23 Sudoeste 37 Sudoeste 0 1008.6 -- 42
2021-01-28 14:00:00 22.7 25 Sudoeste 42 Sudoeste 0 1009.4 -- 43
2021-01-28 13:00:00 22.1 30 Oeste 45 Oeste 0 1010.2 -- 45
2021-01-28 12:00:00 21.4 30 Oeste 45 Oeste 0 1010.6 -- 46
2021-01-28 11:00:00 20 27 Oeste 52 Oeste 0 1010.9 -- 51
2021-01-28 10:00:00 18.5 35 Oeste 45 Oeste 0 1010.2 -- 56
2021-01-28 09:00:00 16.7 34 Oeste 46 Oeste 0 1010 -- 63
2021-01-28 08:00:00 16.3 28 Oeste 42 Oeste 0 1010.2 -- 63
2021-01-28 07:00:00 16.4 28 Oeste 42 Oeste 0 1010.1 -- 65
2021-01-28 06:00:00 16.2 20 Sudoeste 39 Sur 0 1010.2 -- 67
2021-01-28 05:00:00 15.8 21 Sudeste 33 Sudeste 0 1009.9 -- 66
2021-01-28 04:00:00 16.1 9 Sudeste 22 Sudeste 0 1010.4 -- 66
2021-01-28 03:00:00 16.3 10 Noroeste 50 Oeste 0 1010.9 -- 65
2021-01-28 02:00:00 15.3 18 Oeste -- -- -- 1011 -- 70
2021-01-28 01:00:00 8.7 5 Este 13 Norte 0 1011.6 -- 91
2021-01-28 00:00:00 8.3 6 Nordeste 15 Norte 0 1012 -- 89
2021-01-27 23:00:00 8.9 10 Norte 17 Norte 0 1012 -- 90
2021-01-27 22:00:00 9.2 8 Norte 15 Norte 0 1012 -- 92
2021-01-27 21:00:00 10.1 8 Nordeste 13 Nordeste 0 1011.8 -- 88
2021-01-27 20:00:00 10.2 6 Norte 11 Noroeste 0 1011.7 -- 92
2021-01-27 19:00:00 11.7 10 Nordeste 18 Este 0 1010.8 -- 85
2021-01-27 18:00:00 14.8 13 Este 28 Norte 0 1010.2 -- 71
2021-01-27 17:00:00 20.7 26 Noroeste 42 Noroeste 0 1009.7 -- 51
2021-01-27 16:00:00 21.4 27 Noroeste 46 Noroeste -- 1009.7 -- 49
2021-01-27 15:00:00 20.9 10 Nordeste 37 Nordeste -- 1009.8 -- 52
2021-01-27 14:00:00 19 11 Sudeste 45 Oeste -- 1010 -- 58
2021-01-27 13:00:00 20.7 24 Oeste 39 Oeste -- 1010 -- 51
2021-01-27 12:00:00 20.2 4 Este 22 Sudoeste -- 1010.8 -- 53
2021-01-27 11:00:00 16.2 5 Sudeste 22 Este -- 1010.7 -- 65
2021-01-27 10:00:00 13.4 10 Oeste 26 Oeste 0 1009.9 -- 76
2021-01-27 09:00:00 7.2 0 Calma 11 Noroeste 0 1010.6 -- 93
2021-01-27 08:00:00 5.8 6 Noroeste 13 Nordeste 0 1010.4 -- 95
2021-01-27 07:00:00 5.2 9 Nordeste 13 Nordeste 0 1010.3 -- 96
2021-01-27 06:00:00 5.5 4 Noroeste 11 Norte 0 1010.3 -- 93
2021-01-27 05:00:00 5.5 5 Nordeste 9 Norte 0 1010.7 -- 94
2021-01-27 04:00:00 5 5 Norte 11 Norte 0 1011.1 -- 91
2021-01-27 03:00:00 5.4 5 Norte 11 Norte 0 1011 -- 88
2021-01-27 02:00:00 4.9 5 Norte -- -- -- 1011.6 -- 89
2021-01-27 01:00:00 6.1 10 Nordeste 21 Norte 0 1011.9 -- 85
2021-01-27 00:00:00 6.5 15 Norte 22 Norte 0 1012.5 -- 79
2021-01-26 23:00:00 6.7 14 Norte 18 Norte 0 1012.6 -- 80
2021-01-26 22:00:00 7.1 12 Norte 13 Norte 0 1012.8 -- 86
2021-01-26 21:00:00 9.7 6 Norte 15 Norte 0 1013.1 -- 87
2021-01-26 20:00:00 10.1 8 Noroeste 24 Sudoeste 0 1013.1 -- 94
2021-01-26 19:00:00 10.8 15 Sudoeste 30 Sudoeste 0 1012.8 -- 93
2021-01-26 18:00:00 11.6 15 Sudoeste 32 Sur 0 1012.4 -- 83
2021-01-26 17:00:00 13 21 Sudoeste 35 Sur 0 1012.6 -- 76
2021-01-26 16:00:00 14 24 Sudoeste 35 Sudoeste 0 1012.8 -- 69
2021-01-26 15:00:00 14.2 25 Sur 37 Sudoeste 0 1012.9 -- 65
2021-01-26 14:00:00 14.5 22 Sudoeste 37 Sur 0 1013.6 -- 60
2021-01-26 13:00:00 14.8 19 Sur 28 Sur 0 1014.2 -- 61
2021-01-26 12:00:00 13.2 19 Oeste 30 Oeste 0 1014.9 -- 52
2021-01-26 11:00:00 11.3 19 Oeste 28 Oeste 0 1014.7 -- 57
2021-01-26 10:00:00 9.1 13 Noroeste 21 Oeste 0 1014.3 -- 66
2021-01-26 09:00:00 7.2 17 Oeste 26 Oeste 0 1013.3 -- 72
2021-01-26 08:00:00 3.9 13 Oeste 21 Oeste 0 1012.3 -- 82
2021-01-26 07:00:00 4.6 15 Oeste 21 Oeste 0 1011.8 -- 82
2021-01-26 06:00:00 2.6 4 Oeste 9 Oeste 0 1010.8 -- 89
2021-01-26 05:00:00 3.6 6 Noroeste 13 Noroeste 0 1010.2 -- 86
2021-01-26 04:00:00 4.4 7 Noroeste 11 Noroeste 0 1009.6 -- 89
2021-01-26 03:00:00 5.3 0 Calma 9 Oeste 0 1008.9 -- 94
2021-01-26 02:00:00 6.4 6 Norte -- -- -- 1008.4 -- 87
2021-01-26 01:00:00 8.7 14 Oeste 21 Noroeste 0 1008.1 -- 71
2021-01-26 00:00:00 9.9 4 Norte 11 Noroeste 0 1007.2 -- 74
2021-01-25 23:00:00 10.3 5 Noroeste 13 Oeste 0 1006.3 -- 74
2021-01-25 22:00:00 10.4 13 Oeste 18 Oeste 0 1005.3 -- 74
2021-01-25 21:00:00 11 4 Sur 15 Noroeste 0 1004.5 -- 70
2021-01-25 20:00:00 11.6 13 Noroeste 24 Noroeste 0 1003.1 -- 66
2021-01-25 19:00:00 11.3 4 Noroeste 24 Sudoeste 0 1001.6 -- 72
2021-01-25 18:00:00 11.5 14 Sudoeste 22 Sudoeste 0 1000.3 -- 73
2021-01-25 17:00:00 12.4 14 Sudoeste 24 Oeste 0 999 -- 70
2021-01-25 16:00:00 13.4 12 Sudoeste 30 Oeste 0 998.3 -- 67
2021-01-25 15:00:00 13 18 Sudoeste 26 Sudoeste 0 998.3 -- 70
2021-01-25 14:00:00 12.9 19 Oeste 28 Oeste 0 998.6 -- 70
2021-01-25 13:00:00 13.3 17 Oeste 26 Oeste 0 999.3 -- 68
2021-01-25 12:00:00 11 13 Oeste 24 Noroeste 0 1000.2 -- 79
2021-01-25 11:00:00 10.7 21 Noroeste 30 Noroeste 0 999.9 -- 71
2021-01-25 10:00:00 11.1 17 Oeste 22 Oeste 0 1000.1 -- 62
2021-01-25 09:00:00 9.9 8 Oeste 30 Oeste 0 999.6 -- 64
2021-01-25 08:00:00 10.1 21 Oeste 32 Oeste 0 999.7 -- 60
2021-01-25 07:00:00 9.1 16 Sudoeste 30 Oeste 0 999.8 -- 63
2021-01-25 06:00:00 9.6 20 Sudoeste 30 Oeste 0 999.8 -- 59
2021-01-25 05:00:00 9.7 21 Oeste 32 Oeste 0 1000.2 -- 60
2021-01-25 04:00:00 9.8 20 Oeste 30 Oeste 0 1000.6 -- 61
2021-01-25 03:00:00 9.9 20 Oeste 28 Oeste 0 1001 -- 59
2021-01-25 02:00:00 10 23 Oeste -- -- -- 1001.3 -- 58
2021-01-25 01:00:00 8.8 21 Oeste 26 Oeste 0 1001.8 -- 64
2021-01-25 00:00:00 7.9 9 Oeste 18 Oeste 0 1002.2 -- 72